Ana Sayfa
METAR-TAF:

METAR-TAF

Havaalanları :

Zonguldak Havalimanı

Zonguldak, Türkiye

Enlem: 41-27N, Boylam: 031-48E, yükseklik: 136 m

Güncel hava durumu gözlemi

Rapor saat 07:50 UTC de 32 dakika önce yapıldı.
Rüzgar güneydan 6 kt
Sıcaklık 6°C
Nem 87%
Basınç 1026 hPa
Görüş mesafesi: 5000 m
1400 ft yükseklikte az bulutlu
2700 ft yükseklikte parçalı bulutlu
9000 ft yükseklikte parçalı çok bulutlu
Pus

METAR: LTAS 230750Z 18006KT 5000 BR FEW014 SCT027 BKN090 06/04 Q1026

Saat: 11:22 (08:22 UTC)

Tahmin

Rapor saat 07:22 UTC de 1 saat ve 0 dakika önce yapıldı.
Ayın 23'si saat 07 UTC'den ayın 23'si saat 15 UTC'ye kadar geçerli Tahmin
Rüzgar değişken yönden 2 kt
Görüş mesafesi: 8000 m
2500 ft yükseklikte parçalı bulutlu
9000 ft yükseklikte parçalı çok bulutlu
Geçici
ayın 23'si saat 07 UTC'den ayın 23'si saat 09 UTC'ye kadar
Görüş mesafesi: 4000 m
Pus

TAF: LTAS 230722Z 2307/2315 VRB02KT 8000 SCT025 BKN090 TEMPO 2307/2309 4000 BR

4.000'den fazla havaalanı için hava durumu gözlemleri ve tahminleri (METAR ve TAF raporları).

Kullanılabilir istasyonlar harita üzerinde sarı ve kırmızı noktalarla gösterilir.

İstasyonun adını görmek için fareyi noktanın üzerinde gezdirin.

Sonrasında hava gözlem ve tahminlerini görmek için tıklayın.

Haritayı değiştirmek için: yaklaştırmak için siyah artı işaretli yeşil düğmeye ve uzaklaştırmak için de eksi işaretli düğmeye hızla tıklayın; bitişik haritalar için yeşil okları kullanın.


METAR-TAF: